Hauptseite
METAR-TAF:

METAR-TAF

Flughäfen :

Fliegerhorst Hinterstoisser

Zeltweg, Österreich

Breite: 47-12N, Länge: 014-45E, Höhe: 677 m

Beobachtung

Neuester Wetterbericht von vor 11 Minuten, um 09:20 UTC
Wind 2 kt aus unterschiedlichen Richtungen
Temperatur 21°C
Luftfeuchtigkeit 53%
Luftdruck 1022 hPa
Sichtweite 10 km oder mehr
Leicht bewölkt in der Höhe von 6000 ft

METAR: LOXZ 110920Z VRB02KT 9999 FEW060 21/11 Q1022 NOSIG

Zeit: 11:31 (09:31 UTC)

Prognose

Neuester Wetterbericht von vor 1 Stunde und 16 Minuten, um 08:15 UTC
Gültige Prognose vom 11 um 09 UTC bis 11 um 18 UTC
Wind 3 kt aus unterschiedlichen Richtungen
Sichtweite 10 km oder mehr
Leicht bewölkt in der Höhe von 5500 ft
Aufgelockert bewölkt in der Höhe von 8000 ft
Zeitweise
vom 11 um 10 UTC bis 11 um 17 UTC
Wind 9 kt aus Ost

TAF: LOXZ 110815Z 1109/1118 VRB03KT 9999 FEW055 SCT080 TEMPO 1110/1117 10009KT

Wetterbeobachtungen und Prognosen von mehr als 4000 Flughäfen (METAR und TAF Bericht).

Die verfügbaren Stationen werden durch gelbe und rote Markierungen auf der Karte dargestellt.

Führen Sie die Maus auf sie, um den Namen der Station zu sehen.

Darauf klicken, um die Beobachtung von Wetterbeobachtungen und Prognosen zu sehen.

Um die Karte zu ändern : klicken Sie auf den grünen Tasten mit einem schwarzen Kreuz Zum Vergrößern, auf den grünen Button mit einem Gedankenstrich zu verkleinern, oder auf die grünen Pfeile für benachbarte Karten.


METAR-TAF: